createdAt,value
2022-10-18T00:02:29.937Z,15.25
2022-10-18T00:05:19.916Z,15.20
2022-10-18T00:08:08.355Z,15.18
2022-10-18T00:10:56.784Z,15.20
2022-10-18T00:13:45.249Z,15.16
2022-10-18T00:16:33.774Z,15.16
2022-10-18T00:19:25.884Z,15.14
2022-10-18T00:22:18.392Z,15.13
2022-10-18T00:25:08.014Z,15.12
2022-10-18T00:27:56.445Z,15.12
2022-10-18T00:30:44.879Z,14.99
2022-10-18T00:33:33.315Z,15.12
2022-10-18T00:36:22.099Z,15.10
2022-10-18T00:39:16.415Z,15.15
2022-10-18T00:42:05.404Z,15.15
2022-10-18T00:45:19.060Z,15.21
2022-10-18T00:48:07.563Z,15.17
2022-10-18T00:50:55.999Z,15.28
2022-10-18T00:53:44.475Z,15.31
2022-10-18T00:56:35.097Z,15.34
2022-10-18T00:59:24.288Z,15.39
2022-10-18T01:02:14.904Z,15.33
2022-10-18T01:05:03.639Z,15.37
2022-10-18T01:08:10.658Z,15.35
2022-10-18T01:11:08.425Z,15.36
2022-10-18T01:14:03.377Z,15.35
2022-10-18T01:16:57.264Z,15.18
2022-10-18T01:20:24.763Z,15.44
2022-10-18T01:23:18.616Z,15.42
2022-10-18T01:26:18.265Z,15.40
2022-10-18T01:29:18.308Z,15.39
2022-10-18T01:32:11.554Z,15.39
2022-10-18T01:35:03.424Z,15.41
2022-10-18T01:37:52.390Z,15.38
2022-10-18T01:40:42.227Z,15.50
2022-10-18T01:43:31.184Z,15.47
2022-10-18T01:46:23.462Z,15.44
2022-10-18T01:49:13.455Z,15.51
2022-10-18T01:52:02.190Z,15.57
2022-10-18T01:54:50.736Z,15.55
2022-10-18T01:57:42.501Z,15.56
2022-10-18T02:00:36.120Z,15.50
2022-10-18T02:03:25.542Z,15.52
2022-10-18T02:06:20.621Z,15.62
2022-10-18T02:09:11.594Z,15.52
2022-10-18T02:12:00.301Z,15.49
2022-10-18T02:14:49.027Z,15.48
2022-10-18T02:17:38.554Z,15.48
2022-10-18T02:20:29.427Z,15.57
2022-10-18T02:23:22.099Z,15.57
2022-10-18T02:26:10.607Z,15.67
2022-10-18T02:28:59.011Z,15.61
2022-10-18T02:31:49.863Z,15.36
2022-10-18T02:34:40.456Z,15.48
2022-10-18T02:37:32.594Z,15.40
2022-10-18T02:40:22.587Z,15.42
2022-10-18T02:43:11.044Z,15.40
2022-10-18T02:45:59.626Z,15.35
2022-10-18T02:48:48.109Z,15.37
2022-10-18T02:51:36.521Z,15.37
2022-10-18T02:54:25.149Z,15.33
2022-10-18T02:57:14.932Z,15.38
2022-10-18T03:00:03.503Z,15.39
2022-10-18T03:02:53.725Z,15.33
2022-10-18T03:05:42.161Z,15.32
2022-10-18T03:08:30.708Z,15.26
2022-10-18T03:11:19.172Z,15.05
2022-10-18T03:14:09.004Z,15.16
2022-10-18T03:16:57.539Z,15.03
2022-10-18T03:19:45.997Z,15.06
2022-10-18T03:22:34.460Z,15.03
2022-10-18T03:25:23.000Z,14.97
2022-10-18T03:28:11.585Z,15.02
2022-10-18T03:31:02.840Z,15.00
2022-10-18T03:33:51.267Z,14.97
2022-10-18T03:36:41.186Z,14.89
2022-10-18T03:39:29.605Z,14.88
2022-10-18T03:42:18.004Z,14.82
2022-10-18T03:45:07.416Z,14.77
2022-10-18T03:47:57.158Z,14.73
2022-10-18T03:50:45.589Z,14.68
2022-10-18T03:53:34.084Z,14.59
2022-10-18T03:56:22.554Z,14.60
2022-10-18T03:59:10.968Z,14.69
2022-10-18T04:01:59.459Z,14.63
2022-10-18T04:04:49.458Z,14.62
2022-10-18T04:07:37.940Z,14.63
2022-10-18T04:10:29.351Z,14.64
2022-10-18T04:13:17.757Z,14.70
2022-10-18T04:16:06.405Z,14.75
2022-10-18T04:18:54.806Z,14.77
2022-10-18T04:21:44.613Z,14.80
2022-10-18T04:24:33.041Z,14.82
2022-10-18T04:27:21.463Z,14.78
2022-10-18T04:30:10.777Z,14.77
2022-10-18T04:32:59.186Z,14.73
2022-10-18T04:35:47.796Z,14.67
2022-10-18T04:38:37.545Z,14.66
2022-10-18T04:41:26.016Z,14.69
2022-10-18T04:44:14.488Z,14.67
2022-10-18T04:47:02.887Z,14.66
2022-10-18T04:49:51.290Z,14.69
2022-10-18T04:52:39.757Z,14.66
2022-10-18T04:55:29.583Z,14.72
2022-10-18T04:58:18.316Z,14.77
2022-10-18T05:01:07.435Z,14.71
2022-10-18T05:03:56.108Z,14.77
2022-10-18T05:06:44.586Z,14.78
2022-10-18T05:09:33.020Z,14.90
2022-10-18T05:12:23.195Z,14.86
2022-10-18T05:15:11.843Z,14.82
2022-10-18T05:18:00.236Z,14.73
2022-10-18T05:20:48.661Z,14.72
2022-10-18T05:23:37.153Z,14.65
2022-10-18T05:26:25.586Z,14.69
2022-10-18T05:29:15.505Z,14.65
2022-10-18T05:32:04.245Z,14.65
2022-10-18T05:34:52.680Z,14.64
2022-10-18T05:37:41.135Z,14.67
2022-10-18T05:40:29.533Z,14.72
2022-10-18T05:43:18.604Z,14.73
2022-10-18T05:46:13.622Z,14.76
2022-10-18T05:49:03.775Z,14.72
2022-10-18T05:51:52.259Z,14.81
2022-10-18T05:54:40.663Z,14.82
2022-10-18T05:57:29.284Z,14.83
2022-10-18T06:00:18.249Z,14.89
2022-10-18T06:03:08.057Z,14.85
2022-10-18T06:06:00.599Z,14.90
2022-10-18T06:08:50.409Z,14.89
2022-10-18T06:11:38.828Z,14.77
2022-10-18T06:14:27.267Z,14.84
2022-10-18T06:17:15.691Z,14.90
2022-10-18T06:20:07.307Z,14.92
2022-10-18T06:22:55.698Z,15.00
2022-10-18T06:25:44.115Z,14.97
2022-10-18T06:28:32.545Z,14.96
2022-10-18T06:31:21.599Z,15.01
2022-10-18T06:34:10.007Z,14.97
2022-10-18T06:36:59.835Z,14.96
2022-10-18T06:39:48.235Z,14.96
2022-10-18T06:42:36.816Z,14.97
2022-10-18T06:45:25.267Z,15.03
2022-10-18T06:48:13.892Z,15.09
2022-10-18T06:51:03.650Z,15.11
2022-10-18T06:54:06.308Z,15.14
2022-10-18T06:57:02.695Z,15.18
2022-10-18T06:59:51.926Z,15.22
2022-10-18T07:02:41.287Z,15.26
2022-10-18T07:05:29.779Z,15.31
2022-10-18T07:08:18.715Z,15.28
2022-10-18T07:11:09.247Z,15.38
2022-10-18T07:14:03.057Z,15.49
2022-10-18T07:16:51.491Z,15.52
2022-10-18T07:19:39.947Z,15.54
2022-10-18T07:22:30.402Z,15.52
2022-10-18T07:25:19.140Z,15.50
2022-10-18T07:28:08.968Z,15.47
2022-10-18T07:30:59.442Z,15.54
2022-10-18T07:33:50.803Z,15.55
2022-10-18T07:36:39.243Z,15.54
2022-10-18T07:39:27.713Z,15.58
2022-10-18T07:42:16.141Z,15.76
2022-10-18T07:45:06.911Z,15.83
2022-10-18T07:47:56.214Z,16.03
2022-10-18T07:50:44.632Z,16.25
2022-10-18T07:53:34.530Z,16.25
2022-10-18T07:56:23.243Z,15.83
2022-10-18T07:59:12.259Z,16.56
2022-10-18T08:02:02.066Z,16.68
2022-10-18T08:04:50.512Z,16.70
2022-10-18T08:07:38.935Z,16.79
2022-10-18T08:10:27.439Z,16.85
2022-10-18T08:13:16.371Z,16.67
2022-10-18T08:16:06.884Z,16.79
2022-10-18T08:18:58.629Z,16.84
2022-10-18T08:21:47.105Z,17.00
2022-10-18T08:24:35.564Z,17.34
2022-10-18T08:27:25.465Z,17.60
2022-10-18T08:30:14.395Z,17.72
2022-10-18T08:33:02.977Z,17.79
2022-10-18T08:35:59.667Z,17.83
2022-10-18T08:38:49.217Z,18.30
2022-10-18T08:41:52.719Z,19.23
2022-10-18T08:44:45.584Z,19.94
2022-10-18T08:47:36.962Z,20.28
2022-10-18T08:50:28.029Z,20.47
2022-10-18T08:53:21.378Z,20.44
2022-10-18T08:56:14.739Z,20.34
2022-10-18T08:59:03.996Z,20.34
2022-10-18T09:02:00.718Z,20.61
2022-10-18T09:04:53.230Z,20.97
2022-10-18T09:08:00.593Z,21.24
2022-10-18T09:14:18.406Z,21.51
2022-10-18T09:17:16.193Z,21.27
2022-10-18T09:20:15.510Z,21.06
2022-10-18T09:23:08.315Z,20.87
2022-10-18T09:26:03.751Z,20.60
2022-10-18T09:29:02.307Z,20.38
2022-10-18T09:31:54.434Z,20.15
2022-10-18T09:34:47.543Z,20.02
2022-10-18T09:37:36.198Z,20.01
2022-10-18T09:40:26.982Z,19.87
2022-10-18T09:43:19.607Z,19.81
2022-10-18T09:46:08.311Z,19.80
2022-10-18T09:49:00.246Z,19.75
2022-10-18T09:51:50.601Z,19.69
2022-10-18T09:54:41.420Z,19.69
2022-10-18T09:57:33.769Z,19.61
2022-10-18T10:00:27.204Z,19.82
2022-10-18T10:03:15.894Z,19.58
2022-10-18T10:06:24.152Z,19.86
2022-10-18T10:09:16.704Z,19.85
2022-10-18T10:12:05.602Z,20.37
2022-10-18T10:14:54.066Z,20.82
2022-10-18T10:17:44.110Z,21.20
2022-10-18T10:20:36.462Z,21.56
2022-10-18T10:23:28.138Z,21.51
2022-10-18T10:26:23.839Z,21.80
2022-10-18T10:29:48.809Z,21.96
2022-10-18T10:32:48.211Z,22.05
2022-10-18T10:35:54.093Z,22.06
2022-10-18T10:38:42.883Z,22.14
2022-10-18T10:44:22.991Z,22.44
2022-10-18T10:47:12.317Z,22.63
2022-10-18T10:50:10.817Z,22.60
2022-10-18T10:52:59.652Z,22.56
2022-10-18T10:55:54.104Z,22.28
2022-10-18T10:58:42.528Z,22.08
2022-10-18T11:01:34.021Z,21.84
2022-10-18T11:04:27.712Z,21.72
2022-10-18T11:07:22.616Z,21.59
2022-10-18T11:10:14.545Z,21.79
2022-10-18T11:13:08.732Z,22.06
2022-10-18T11:16:00.696Z,22.48
2022-10-18T11:18:50.514Z,22.73
2022-10-18T11:21:39.388Z,22.63
2022-10-18T11:24:29.381Z,22.42
2022-10-18T11:27:21.615Z,22.18
2022-10-18T11:30:36.309Z,22.17
2022-10-18T11:33:56.464Z,22.35
2022-10-18T11:36:56.248Z,22.41
2022-10-18T11:39:57.382Z,22.32
2022-10-18T11:42:49.260Z,22.30
2022-10-18T11:45:44.242Z,22.26
2022-10-18T11:48:51.804Z,22.30
2022-10-18T11:52:07.298Z,22.21
2022-10-18T11:55:06.592Z,22.31
2022-10-18T11:57:58.735Z,22.35
2022-10-18T12:00:52.678Z,22.09
2022-10-18T12:03:50.842Z,22.07
2022-10-18T12:06:41.403Z,22.22
2022-10-18T12:09:32.481Z,22.47
2022-10-18T12:12:24.670Z,22.61
2022-10-18T12:15:17.435Z,22.85
2022-10-18T12:18:08.185Z,22.84
2022-10-18T12:20:58.270Z,23.11
2022-10-18T12:23:52.380Z,23.33
2022-10-18T12:26:40.971Z,23.61
2022-10-18T12:29:32.707Z,23.63
2022-10-18T12:32:22.867Z,23.69
2022-10-18T12:35:13.694Z,23.40
2022-10-18T12:38:15.895Z,23.45
2022-10-18T12:41:04.677Z,23.07
2022-10-18T12:43:54.367Z,22.91
2022-10-18T12:46:49.676Z,22.78
2022-10-18T12:49:41.484Z,22.67
2022-10-18T12:52:34.525Z,22.51
2022-10-18T12:55:31.141Z,22.47
2022-10-18T12:58:30.945Z,22.36
2022-10-18T13:01:19.467Z,22.07
2022-10-18T13:04:35.281Z,22.13
2022-10-18T13:07:40.862Z,22.11
2022-10-18T13:10:38.158Z,22.03
2022-10-18T13:13:47.548Z,22.01
2022-10-18T13:16:40.555Z,21.90
2022-10-18T13:19:35.481Z,21.95
2022-10-18T13:22:36.366Z,21.90
2022-10-18T13:25:29.741Z,21.84
2022-10-18T13:28:25.191Z,21.41
2022-10-18T13:31:21.032Z,21.84
2022-10-18T13:34:25.950Z,21.84
2022-10-18T13:37:24.012Z,21.86
2022-10-18T13:40:16.916Z,21.76
2022-10-18T13:43:38.486Z,21.89
2022-10-18T13:47:19.702Z,21.93
2022-10-18T13:50:26.048Z,21.83
2022-10-18T13:53:34.187Z,21.76
2022-10-18T13:56:53.249Z,21.73
2022-10-18T13:59:56.188Z,21.76
2022-10-18T14:03:00.073Z,21.70
2022-10-18T14:05:53.134Z,21.55
2022-10-18T14:08:45.253Z,21.46
2022-10-18T14:11:39.704Z,21.45
2022-10-18T14:14:34.287Z,21.47
2022-10-18T14:17:29.770Z,21.24
2022-10-18T14:20:27.217Z,21.47
2022-10-18T14:23:21.441Z,21.48
2022-10-18T14:26:12.789Z,21.42
2022-10-18T14:29:06.044Z,21.40
2022-10-18T14:31:56.321Z,21.36
2022-10-18T14:34:45.332Z,21.21
2022-10-18T14:37:35.795Z,21.31
2022-10-18T14:40:32.725Z,21.18
2022-10-18T14:43:21.300Z,21.27
2022-10-18T14:46:11.117Z,21.27
2022-10-18T14:49:01.387Z,21.25
2022-10-18T14:51:52.064Z,21.22
2022-10-18T14:54:40.800Z,21.17
2022-10-18T14:57:32.300Z,21.07
2022-10-18T15:03:17.569Z,20.78
2022-10-18T15:06:08.448Z,21.02
2022-10-18T15:08:58.686Z,20.98
2022-10-18T15:11:47.847Z,21.03
2022-10-18T15:14:37.848Z,21.00
2022-10-18T15:17:27.476Z,20.93
2022-10-18T15:20:22.504Z,20.87
2022-10-18T15:23:24.171Z,20.81
2022-10-18T15:26:14.333Z,21.02
2022-10-18T15:29:06.114Z,20.86
2022-10-18T15:31:57.479Z,20.80
2022-10-18T15:34:46.839Z,20.77
2022-10-18T15:37:39.197Z,20.70
2022-10-18T15:40:35.156Z,20.63
2022-10-18T15:43:37.673Z,20.54
2022-10-18T15:46:33.632Z,20.59
2022-10-18T15:49:54.459Z,20.56
2022-10-18T15:52:43.493Z,20.54
2022-10-18T15:55:49.721Z,20.60
2022-10-18T15:58:41.747Z,20.50
2022-10-18T16:01:34.784Z,20.46
2022-10-18T16:04:26.763Z,20.40
2022-10-18T16:07:16.654Z,20.34
2022-10-18T16:10:13.475Z,20.18
2022-10-18T16:13:01.909Z,20.26
2022-10-18T16:15:50.403Z,20.20
2022-10-18T16:18:38.944Z,20.07
2022-10-18T16:21:28.752Z,20.05
2022-10-18T16:24:18.902Z,19.15
2022-10-18T16:27:07.564Z,20.06
2022-10-18T16:29:56.157Z,20.06
2022-10-18T16:32:44.608Z,20.01
2022-10-18T16:35:34.181Z,19.98
2022-10-18T16:38:29.925Z,19.96
2022-10-18T16:41:22.770Z,19.93
2022-10-18T16:44:11.395Z,19.89
2022-10-18T16:46:59.884Z,19.88
2022-10-18T16:49:49.150Z,19.88
2022-10-18T16:52:37.697Z,19.92
2022-10-18T16:55:26.146Z,19.84
2022-10-18T16:58:18.644Z,19.80
2022-10-18T17:01:08.982Z,19.71
2022-10-18T17:03:57.673Z,19.74
2022-10-18T17:06:46.189Z,19.71
2022-10-18T17:09:36.837Z,19.30
2022-10-18T17:12:25.297Z,19.53
2022-10-18T17:15:15.163Z,19.43
2022-10-18T17:18:03.972Z,19.22
2022-10-18T17:20:52.407Z,19.32
2022-10-18T17:23:40.932Z,19.37
2022-10-18T17:26:30.275Z,19.25
2022-10-18T17:29:19.097Z,19.30
2022-10-18T17:32:09.126Z,19.33
2022-10-18T17:34:57.591Z,19.36
2022-10-18T17:37:48.518Z,19.29
2022-10-18T17:40:43.431Z,19.30
2022-10-18T17:43:32.040Z,19.26
2022-10-18T17:46:21.020Z,19.05
2022-10-18T17:49:10.864Z,19.17
2022-10-18T17:52:03.304Z,19.17
2022-10-18T17:54:55.263Z,19.13
2022-10-18T17:57:44.237Z,19.19
2022-10-18T18:00:32.811Z,19.08
2022-10-18T18:03:21.548Z,18.78
2022-10-18T18:06:16.260Z,18.93
2022-10-18T18:09:07.952Z,18.90
2022-10-18T18:11:56.597Z,18.84
2022-10-18T18:14:45.183Z,18.81
2022-10-18T18:17:34.325Z,18.72
2022-10-18T18:20:28.486Z,18.75
2022-10-18T18:23:19.553Z,18.78
2022-10-18T18:26:08.375Z,18.74
2022-10-18T18:28:56.914Z,18.73
2022-10-18T18:31:45.414Z,18.72
2022-10-18T18:34:34.202Z,18.65
2022-10-18T18:37:22.606Z,18.62
2022-10-18T18:40:12.665Z,18.60
2022-10-18T18:43:12.537Z,18.53
2022-10-18T18:46:10.080Z,18.54
2022-10-18T18:48:59.132Z,18.54
2022-10-18T18:51:47.700Z,18.42
2022-10-18T18:54:36.165Z,18.45
2022-10-18T18:57:26.075Z,18.36
2022-10-18T19:00:15.892Z,18.43
2022-10-18T19:03:04.384Z,18.37
2022-10-18T19:05:52.837Z,18.30
2022-10-18T19:08:41.321Z,18.33
2022-10-18T19:11:32.337Z,18.33
2022-10-18T19:14:24.073Z,18.29
2022-10-18T19:17:13.400Z,18.28
2022-10-18T19:20:01.841Z,18.28
2022-10-18T19:22:50.355Z,18.22
2022-10-18T19:25:40.566Z,18.19
2022-10-18T19:28:29.174Z,18.12
2022-10-18T19:31:19.308Z,18.08
2022-10-18T19:34:09.496Z,18.10
2022-10-18T19:36:58.055Z,18.10
2022-10-18T19:39:46.607Z,18.11
2022-10-18T19:42:37.382Z,18.06
2022-10-18T19:45:26.256Z,18.05
2022-10-18T19:48:16.086Z,18.05
2022-10-18T19:51:07.070Z,18.02
2022-10-18T19:53:58.223Z,18.00
2022-10-18T19:56:46.815Z,18.00
2022-10-18T19:59:35.980Z,17.96
2022-10-18T20:02:24.602Z,17.89
2022-10-18T20:05:14.433Z,17.93
2022-10-18T20:08:03.694Z,17.91
2022-10-18T20:10:52.214Z,17.86
2022-10-18T20:13:40.875Z,17.82
2022-10-18T20:16:31.164Z,17.79
2022-10-18T20:19:19.623Z,17.76
2022-10-18T20:22:09.510Z,17.71
2022-10-18T20:24:58.024Z,17.68
2022-10-18T20:27:46.456Z,17.63
2022-10-18T20:30:34.927Z,17.60
2022-10-18T20:33:23.379Z,17.59
2022-10-18T20:36:13.599Z,17.55
2022-10-18T20:39:05.262Z,17.46
2022-10-18T20:41:53.694Z,17.47
2022-10-18T20:44:43.515Z,17.37
2022-10-18T20:47:32.268Z,17.36
2022-10-18T20:50:20.955Z,17.30
2022-10-18T20:53:09.359Z,17.28
2022-10-18T20:56:05.196Z,17.19
2022-10-18T20:58:55.651Z,17.13
2022-10-18T21:01:44.139Z,17.08
2022-10-18T21:04:32.603Z,16.98
2022-10-18T21:07:21.079Z,16.95
2022-10-18T21:10:10.026Z,16.88
2022-10-18T21:12:59.796Z,16.85
2022-10-18T21:15:55.018Z,16.82
2022-10-18T21:18:43.504Z,16.80
2022-10-18T21:21:32.047Z,16.73
2022-10-18T21:24:21.304Z,16.61
2022-10-18T21:27:09.697Z,16.61
2022-10-18T21:29:59.506Z,16.56
2022-10-18T21:32:49.672Z,16.52
2022-10-18T21:35:38.620Z,16.40
2022-10-18T21:38:27.054Z,16.37
2022-10-18T21:41:16.920Z,16.29
2022-10-18T21:44:08.395Z,16.24
2022-10-18T21:47:00.472Z,16.23
2022-10-18T21:49:48.895Z,15.21
2022-10-18T21:52:38.086Z,16.11
2022-10-18T21:55:26.557Z,16.03
2022-10-18T21:58:15.045Z,15.95
2022-10-18T22:01:03.787Z,15.97
2022-10-18T22:03:55.165Z,15.92
2022-10-18T22:06:43.610Z,15.87
2022-10-18T22:09:32.376Z,15.83
2022-10-18T22:12:20.881Z,15.81
2022-10-18T22:15:09.960Z,15.75
2022-10-18T22:17:58.363Z,15.66
2022-10-18T22:20:55.715Z,15.71
2022-10-18T22:23:45.645Z,15.20
2022-10-18T22:26:37.143Z,15.47
2022-10-18T22:29:25.556Z,15.56
2022-10-18T22:32:13.965Z,15.36
2022-10-18T22:35:02.375Z,15.42
2022-10-18T22:37:54.564Z,15.36
2022-10-18T22:40:43.303Z,15.35
2022-10-18T22:43:31.749Z,15.34
2022-10-18T22:46:20.804Z,15.34
2022-10-18T22:49:09.640Z,15.35
2022-10-18T22:51:58.049Z,15.30
2022-10-18T22:54:47.814Z,15.23
2022-10-18T22:57:36.233Z,15.21
2022-10-18T23:00:24.706Z,15.16
2022-10-18T23:03:15.791Z,15.17
2022-10-18T23:06:05.263Z,15.15
2022-10-18T23:08:54.616Z,15.06
2022-10-18T23:11:44.502Z,15.06
2022-10-18T23:14:32.904Z,14.97
2022-10-18T23:17:21.323Z,14.87
2022-10-18T23:20:10.416Z,14.83
2022-10-18T23:22:58.908Z,14.82
2022-10-18T23:25:50.996Z,14.82
2022-10-18T23:28:43.025Z,14.81
2022-10-18T23:31:33.042Z,14.75
2022-10-18T23:34:21.561Z,14.76
2022-10-18T23:37:09.993Z,14.74
2022-10-18T23:39:58.412Z,14.48
2022-10-18T23:42:46.841Z,14.62
2022-10-18T23:45:36.702Z,14.04
2022-10-18T23:48:25.303Z,14.53
2022-10-18T23:51:13.857Z,14.53
2022-10-18T23:54:02.248Z,14.54
2022-10-18T23:56:50.705Z,14.46
2022-10-18T23:59:39.171Z,14.31
